KFEW/FEW METAR and TAF weather

Enter ICAO airport designator
Station Type Date Time Source
KFEW METAR 2019/10/14 05:58 UTC NOAA

KFEW 140558Z AUTO 30003KT 10SM BKN240 M01/M08 A3001 RMK AO2 SLP134 T10111079 10140 21019 58004 $


Station Type Date Time Source
KFEW Decoded METAR 2019/10/14 05:58 UTC NOAA

Station name not available
Oct 14, 2019 - 01:58 AM EDT / 2019.10.14 0558 UTC
Wind: from the WNW (300 degrees) at 3 MPH (3 KT):0
Visibility: 10 mile(s):0
Sky conditions: mostly cloudy
Temperature: 30.0 F (-1.1 C)
Dew Point: 17.8 F (-7.9 C)
Relative Humidity: 59%
Pressure (altimeter): 30.01 in. Hg (1016 hPa)
Pressure tendency: 0.01 inches (0.4 hPa) lower than three hours ago
ob: KFEW 140558Z AUTO 30003KT 10SM BKN240 M01/M08 A3001 RMK AO2 SLP134 T10111079 10140 21019 58004
cycle: 6

Station Type Date Time Source
KFEW TAF UTC NOAA

Error!

Example: see airport list